Time;durP1;ratioP1;P1;durP2;ratioP2;P2;SDS_P1;SDS_P2;PMS_P1;PMS_P2;Temp;Humidity;BMP_temperature;BMP_pressure;BME280_temperature;BME280_humidity;BME280_pressure;Samples;Min_cycle;Max_cycle;Signal;HPM_P1;HPM_P2
2021/10/12 00:00:31;;;;;;;18.02;5.75;;;;;;;12.73;87.06;96122.06;5093460;28;20020;-61
2021/10/12 00:02:57;;;;;;;8.57;4.85;;;;;;;12.67;87.23;96122.41;5093159;28;20451;-62
2021/10/12 00:05:22;;;;;;;6.47;4.25;;;;;;;12.66;87.31;96120.72;5093444;28;20440;-62
2021/10/12 00:07:48;;;;;;;15.98;14.27;;;;;;;12.63;87.32;96120.88;5093352;28;20110;-62
2021/10/12 00:10:14;;;;;;;9.23;8.10;;;;;;;12.62;87.71;96113.94;5093288;28;20036;-63
2021/10/12 00:12:39;;;;;;;7.80;5.25;;;;;;;12.62;87.59;96117.38;5093161;28;20592;-62
2021/10/12 00:15:06;;;;;;;6.00;4.63;;;;;;;12.66;87.54;96115.47;5075105;28;20028;-61
2021/10/12 00:17:32;;;;;;;6.57;3.72;;;;;;;12.69;87.45;96114.44;5092545;28;20023;-62
2021/10/12 00:19:57;;;;;;;7.80;4.10;;;;;;;12.73;87.33;96106.31;5093217;28;20024;-63
2021/10/12 00:22:23;;;;;;;4.80;3.75;;;;;;;12.71;87.21;96102.97;5093034;28;20031;-61
2021/10/12 00:24:48;;;;;;;4.45;3.47;;;;;;;12.68;87.42;96089.13;5093151;28;20023;-62
2021/10/12 00:27:14;;;;;;;8.00;4.10;;;;;;;12.66;87.56;96089.22;5093161;28;20027;-62
2021/10/12 00:29:40;;;;;;;8.98;4.32;;;;;;;12.71;87.37;96088.97;5093173;28;20072;-63
2021/10/12 00:32:06;;;;;;;8.02;4.38;;;;;;;12.73;87.57;96095.81;5093248;28;20028;-61
2021/10/12 00:34:31;;;;;;;7.53;3.95;;;;;;;12.73;87.33;96095.81;5092820;28;20122;-62
2021/10/12 00:36:57;;;;;;;5.45;3.88;;;;;;;12.69;87.45;96088.19;5093059;28;20024;-62
2021/10/12 00:39:22;;;;;;;5.45;3.88;;;;;;;12.72;87.42;96082.78;5092881;28;20028;-61
2021/10/12 00:41:48;;;;;;;5.15;4.20;;;;;;;12.72;87.38;96091.53;5092938;28;20025;-61
2021/10/12 00:44:14;;;;;;;8.30;4.22;;;;;;;12.72;87.38;96088.91;5092996;28;20020;-61
2021/10/12 00:46:39;;;;;;;7.95;4.47;;;;;;;12.77;87.33;96096.53;5092948;28;20028;-63
2021/10/12 00:49:05;;;;;;;7.53;4.30;;;;;;;12.74;87.45;96101.94;5092950;28;20146;-60
2021/10/12 00:51:31;;;;;;;7.60;4.13;;;;;;;12.75;87.44;96091.34;5092965;28;20020;-61
2021/10/12 00:53:57;;;;;;;6.63;4.55;;;;;;;12.77;87.17;96078.97;5092692;28;20031;-62
2021/10/12 00:56:23;;;;;;;7.50;3.90;;;;;;;12.75;87.24;96080.00;5092909;28;20028;-62
2021/10/12 00:58:49;;;;;;;8.35;4.60;;;;;;;12.73;87.44;96077.47;5092793;28;20099;-62
2021/10/12 01:01:15;;;;;;;8.30;4.60;;;;;;;12.73;87.45;96079.22;5092718;28;20111;-61
2021/10/12 01:03:41;;;;;;;8.40;4.65;;;;;;;12.69;87.74;96082.94;5092537;28;20393;-61
2021/10/12 01:06:07;;;;;;;11.60;4.40;;;;;;;12.76;87.41;96084.31;5092825;28;20028;-62
2021/10/12 01:08:33;;;;;;;8.77;4.30;;;;;;;12.77;87.56;96073.72;5092743;28;20020;-62
2021/10/12 01:10:59;;;;;;;8.27;5.05;;;;;;;12.72;87.47;96065.28;5092642;28;20496;-62
2021/10/12 01:13:26;;;;;;;11.13;5.28;;;;;;;12.73;87.48;96059.09;5092712;28;20495;-61
2021/10/12 01:15:52;;;;;;;11.43;5.00;;;;;;;12.80;87.34;96064.00;5092726;28;20031;-62
2021/10/12 01:18:18;;;;;;;12.30;4.70;;;;;;;12.81;87.18;96063.06;5092613;28;20373;-61
2021/10/12 01:20:44;;;;;;;9.55;4.82;;;;;;;12.80;87.06;96066.63;5092710;28;20469;-61
2021/10/12 01:23:11;;;;;;;8.38;5.13;;;;;;;12.84;87.10;96066.38;5092670;28;20022;-60
2021/10/12 01:25:37;;;;;;;12.57;5.47;;;;;;;12.86;86.83;96061.06;5092589;28;20091;-61
2021/10/12 01:28:04;;;;;;;13.05;4.60;;;;;;;12.88;86.87;96067.91;5092536;28;20103;-61
2021/10/12 01:30:30;;;;;;;12.55;5.00;;;;;;;12.89;86.72;96060.88;5094564;28;20042;-61
2021/10/12 01:32:56;;;;;;;15.02;9.23;;;;;;;12.83;86.75;96050.72;5096206;28;20103;-62
2021/10/12 01:35:22;;;;;;;10.70;5.60;;;;;;;12.68;87.06;96044.53;5095960;28;20427;-62
2021/10/12 01:37:47;;;;;;;15.02;6.07;;;;;;;12.59;87.50;96046.75;5096012;28;20101;-62
2021/10/12 01:40:14;;;;;;;12.35;5.43;;;;;;;12.62;87.86;96043.91;5096118;28;20385;-61
2021/10/12 01:42:40;;;;;;;9.63;5.00;;;;;;;12.64;87.66;96044.69;5095966;28;20031;-62
2021/10/12 01:45:08;;;;;;;8.75;4.82;;;;;;;12.63;87.84;96042.16;5095883;28;20351;-61
2021/10/12 01:47:34;;;;;;;10.10;4.68;;;;;;;12.63;87.75;96043.00;5095786;28;20081;-61
2021/10/12 01:50:00;;;;;;;12.40;4.85;;;;;;;12.61;87.98;96036.13;5095719;28;20406;-63
2021/10/12 01:52:26;;;;;;;14.50;5.55;;;;;;;12.60;88.08;96051.03;5095834;28;20028;-61
2021/10/12 01:54:51;;;;;;;12.57;4.95;;;;;;;12.62;87.90;96037.84;5095661;28;20055;-62
2021/10/12 01:57:18;;;;;;;6.97;4.20;;;;;;;12.66;87.62;96044.63;5095752;28;20466;-61
2021/10/12 01:59:47;;;;;;;7.43;4.18;;;;;;;12.59;87.85;96040.63;5095851;28;20043;-62
2021/10/12 02:02:13;;;;;;;6.65;4.53;;;;;;;12.57;88.09;96034.59;5095377;28;20115;-62
2021/10/12 02:04:38;;;;;;;6.47;4.25;;;;;;;12.57;88.00;96040.72;5095675;28;20521;-62
2021/10/12 02:07:04;;;;;;;5.15;3.83;;;;;;;12.54;88.24;96025.13;5095468;28;20089;-62
2021/10/12 02:09:30;;;;;;;6.95;3.53;;;;;;;12.56;88.00;96025.06;5095368;28;20055;-62
2021/10/12 02:11:57;;;;;;;8.23;5.78;;;;;;;12.46;88.13;96022.91;5095260;28;20024;-61
2021/10/12 02:14:23;;;;;;;15.60;10.65;;;;;;;12.50;88.40;96023.63;5095216;28;20016;-62
2021/10/12 02:16:48;;;;;;;7.60;5.45;;;;;;;12.55;88.30;96023.38;5095412;28;20030;-62
2021/10/12 02:19:14;;;;;;;8.82;5.47;;;;;;;12.58;88.14;96026.66;5095319;28;20102;-62
2021/10/12 02:21:40;;;;;;;5.40;3.47;;;;;;;12.65;87.90;96029.81;5095223;28;20107;-61
2021/10/12 02:24:06;;;;;;;2.72;1.98;;;;;;;12.72;87.60;96028.53;5095033;28;20446;-61
2021/10/12 02:26:32;;;;;;;4.32;3.10;;;;;;;12.77;87.28;96018.63;5095103;28;20020;-63
2021/10/12 02:28:57;;;;;;;6.53;2.20;;;;;;;12.76;86.88;95995.94;5095237;28;20389;-63
2021/10/12 02:31:23;;;;;;;2.83;2.10;;;;;;;12.61;87.69;96012.53;5095016;28;20021;-62
2021/10/12 02:33:49;;;;;;;2.38;1.70;;;;;;;12.70;87.64;96013.81;5095082;28;20024;-61
2021/10/12 02:36:14;;;;;;;1.83;1.73;;;;;;;12.74;87.62;96007.47;5094789;28;20477;-61
2021/10/12 02:38:41;;;;;;;2.22;1.75;;;;;;;12.71;87.41;96003.25;5094922;28;20031;-62
2021/10/12 02:41:06;;;;;;;2.42;1.75;;;;;;;12.67;87.60;96012.19;5094323;28;20452;-61
2021/10/12 02:43:32;;;;;;;2.22;1.45;;;;;;;12.76;87.31;96002.97;5094734;28;20099;-63
2021/10/12 02:45:58;;;;;;;2.10;1.70;;;;;;;12.82;87.04;95996.53;5094555;28;20020;-60
2021/10/12 02:48:23;;;;;;;2.28;1.50;;;;;;;12.83;86.84;96000.84;5094558;28;20030;-61
2021/10/12 02:50:49;;;;;;;1.15;1.05;;;;;;;12.84;86.27;95985.03;5094605;28;20016;-61
2021/10/12 02:53:15;;;;;;;1.55;1.25;;;;;;;12.85;85.99;95976.22;5094487;28;20058;-62
2021/10/12 02:55:41;;;;;;;2.55;1.45;;;;;;;12.88;85.91;95972.56;5094566;28;20028;-61
2021/10/12 02:58:07;;;;;;;2.17;1.90;;;;;;;12.82;86.00;95965.88;5094567;28;20412;-62
2021/10/12 03:00:33;;;;;;;7.57;2.35;;;;;;;12.76;86.28;95964.44;5094602;28;20048;-63
2021/10/12 03:02:59;;;;;;;1.80;1.58;;;;;;;12.75;86.35;95961.91;5094233;28;20556;-62
2021/10/12 03:05:24;;;;;;;3.53;2.47;;;;;;;12.74;86.24;95953.19;5094463;28;20028;-62
2021/10/12 03:07:50;;;;;;;2.10;1.90;;;;;;;12.72;86.16;95944.56;5094441;28;20029;-62
2021/10/12 03:10:15;;;;;;;2.78;1.52;;;;;;;12.67;86.42;95943.97;5094284;28;20060;-62
2021/10/12 03:12:41;;;;;;;1.98;1.88;;;;;;;12.65;86.41;95932.72;5094101;28;20111;-61
2021/10/12 03:15:08;;;;;;;2.05;1.50;;;;;;;12.65;86.50;95932.72;5094031;28;20032;-62
2021/10/12 03:17:34;;;;;;;1.60;1.10;;;;;;;12.65;86.37;95922.22;5094086;28;20020;-62
2021/10/12 03:19:59;;;;;;;3.05;1.00;;;;;;;12.62;86.48;95923.22;5094217;28;20031;-62
2021/10/12 03:22:25;;;;;;;1.15;0.93;;;;;;;12.64;86.54;95910.03;5094138;28;20020;-61
2021/10/12 03:24:51;;;;;;;1.05;1.00;;;;;;;12.62;85.99;95909.28;5094090;28;20016;-62
2021/10/12 03:27:17;;;;;;;1.00;1.00;;;;;;;12.51;86.32;95915.97;5093829;28;20462;-62
2021/10/12 03:29:43;;;;;;;1.10;0.90;;;;;;;12.42;85.86;95907.75;5094125;28;20024;-62
2021/10/12 03:32:09;;;;;;;3.58;1.20;;;;;;;12.32;85.10;95917.94;5093963;28;20020;-61
2021/10/12 03:34:35;;;;;;;3.58;1.27;;;;;;;12.18;85.62;95916.91;5093758;28;20030;-62
2021/10/12 03:37:01;;;;;;;1.65;1.55;;;;;;;12.16;84.87;95933.66;5093739;28;20018;-63
2021/10/12 03:39:28;;;;;;;1.55;1.45;;;;;;;12.07;85.44;95935.00;5093806;28;20012;-62
2021/10/12 03:41:54;;;;;;;1.80;1.42;;;;;;;11.98;85.33;95928.44;5093765;28;20082;-61
2021/10/12 03:44:21;;;;;;;1.70;1.60;;;;;;;11.99;85.65;95915.25;5093657;28;20020;-63
2021/10/12 03:46:47;;;;;;;1.63;1.52;;;;;;;12.01;84.96;95926.50;5093763;28;20062;-61
2021/10/12 03:49:13;;;;;;;2.20;1.52;;;;;;;11.97;85.24;95914.50;5093595;28;20047;-61
2021/10/12 03:51:40;;;;;;;2.20;1.70;;;;;;;11.99;84.69;95931.00;5093146;28;20021;-63
2021/10/12 03:54:07;;;;;;;2.45;1.50;;;;;;;11.87;84.95;95929.00;5092965;28;20024;-63
2021/10/12 03:56:33;;;;;;;1.65;1.52;;;;;;;11.93;85.76;95947.03;5093577;28;20061;-62
2021/10/12 03:58:58;;;;;;;2.35;1.80;;;;;;;11.94;85.92;95948.72;5093406;28;20054;-63
2021/10/12 04:01:24;;;;;;;2.05;1.52;;;;;;;11.98;86.03;95945.00;5093332;28;20031;-62
2021/10/12 04:03:51;;;;;;;2.88;1.75;;;;;;;12.00;85.89;95943.16;5093137;28;20112;-63
2021/10/12 04:06:17;;;;;;;3.70;1.55;;;;;;;12.03;85.38;95941.28;5093272;28;20062;-61
2021/10/12 04:08:42;;;;;;;1.40;1.30;;;;;;;11.97;85.46;95947.69;5093477;28;20016;-61
2021/10/12 04:11:09;;;;;;;9.95;1.77;;;;;;;11.99;85.67;95957.19;5093378;28;20031;-61
2021/10/12 04:13:35;;;;;;;2.45;1.60;;;;;;;11.98;85.72;95950.25;5093140;28;20530;-62
2021/10/12 04:16:00;;;;;;;1.52;1.40;;;;;;;11.92;85.84;95945.31;5093239;28;20120;-62
2021/10/12 04:18:26;;;;;;;3.95;1.75;;;;;;;11.88;86.33;95947.28;5093333;28;20095;-63
2021/10/12 04:20:52;;;;;;;6.93;6.22;;;;;;;11.89;86.33;95937.63;5093303;28;20028;-61
2021/10/12 04:23:18;;;;;;;2.70;2.50;;;;;;;11.87;86.43;95945.56;5093246;28;20476;-63
2021/10/12 04:25:44;;;;;;;1.90;1.80;;;;;;;11.81;86.73;95935.44;5093072;28;20028;-62
2021/10/12 04:28:13;;;;;;;1.80;1.70;;;;;;;11.84;86.61;95934.41;5093049;28;20032;-62
2021/10/12 04:30:40;;;;;;;2.30;2.10;;;;;;;11.87;86.33;95934.25;5093088;28;20021;-62
2021/10/12 04:33:06;;;;;;;1.92;1.42;;;;;;;11.86;86.45;95928.16;5093076;28;20056;-63
2021/10/12 04:35:32;;;;;;;1.73;1.63;;;;;;;11.85;86.36;95923.84;5093209;28;20452;-62
2021/10/12 04:37:58;;;;;;;2.13;1.48;;;;;;;11.90;86.48;95921.00;5093215;28;20078;-61
2021/10/12 04:40:25;;;;;;;1.77;1.58;;;;;;;11.93;86.41;95920.81;5093251;28;20382;-62
2021/10/12 04:42:51;;;;;;;2.88;1.80;;;;;;;11.91;86.90;95917.44;5092982;28;20492;-61
2021/10/12 04:45:17;;;;;;;3.22;1.67;;;;;;;11.93;87.07;95915.59;5092958;28;20573;-62
2021/10/12 04:47:42;;;;;;;1.70;1.50;;;;;;;11.96;86.98;95906.72;5093048;28;20107;-62
2021/10/12 04:50:08;;;;;;;2.13;1.70;;;;;;;11.96;87.26;95909.31;5092879;28;20020;-62
2021/10/12 04:52:33;;;;;;;2.40;1.40;;;;;;;12.05;87.32;95907.97;5092920;28;20504;-62
2021/10/12 04:54:59;;;;;;;1.70;1.50;;;;;;;12.09;87.41;95901.66;5092984;28;20111;-61
2021/10/12 04:57:24;;;;;;;1.90;1.80;;;;;;;12.09;87.33;95897.28;5093097;28;20024;-62
2021/10/12 04:59:50;;;;;;;3.20;1.90;;;;;;;12.11;87.58;95889.34;5092914;28;20477;-62
2021/10/12 05:02:16;;;;;;;1.55;1.45;;;;;;;12.05;87.89;95884.38;5092495;28;20032;-62
2021/10/12 05:04:41;;;;;;;1.75;1.65;;;;;;;12.05;88.42;95887.88;5095259;28;20031;-62
2021/10/12 05:07:07;;;;;;;2.50;1.80;;;;;;;12.14;88.27;95881.31;5096658;28;20028;-63
2021/10/12 05:09:32;;;;;;;2.08;1.60;;;;;;;12.16;88.33;95879.44;5096775;28;20069;-62
2021/10/12 05:11:58;;;;;;;3.00;1.80;;;;;;;12.17;88.12;95883.75;5096582;28;20030;-62
2021/10/12 05:14:23;;;;;;;2.15;1.98;;;;;;;12.21;88.22;95872.16;5096308;28;20024;-61
2021/10/12 05:16:51;;;;;;;4.50;2.28;;;;;;;12.23;88.17;95866.84;5096425;28;20016;-62
2021/10/12 05:19:17;;;;;;;2.50;2.20;;;;;;;12.26;88.28;95861.44;5096393;28;20366;-62
2021/10/12 05:21:43;;;;;;;1.85;1.75;;;;;;;12.30;88.06;95854.22;5096380;28;20020;-63
2021/10/12 05:24:08;;;;;;;4.00;1.70;;;;;;;12.34;88.30;95858.38;5096350;28;20016;-63
2021/10/12 05:26:35;;;;;;;2.65;2.00;;;;;;;12.40;88.26;95868.50;5096239;28;20023;-62
2021/10/12 05:29:01;;;;;;;4.20;2.20;;;;;;;12.44;88.17;95867.44;5096174;28;20024;-62
2021/10/12 05:31:27;;;;;;;4.10;2.70;;;;;;;12.51;87.83;95860.91;5096154;28;20458;-63
2021/10/12 05:33:52;;;;;;;2.88;2.40;;;;;;;12.53;87.77;95866.06;5095982;28;20028;-61
2021/10/12 05:36:18;;;;;;;1.27;1.17;;;;;;;12.58;87.61;95866.63;5096225;28;20030;-61
2021/10/12 05:38:46;;;;;;;2.13;1.70;;;;;;;12.58;87.38;95852.69;5095956;28;20016;-63
2021/10/12 05:41:11;;;;;;;1.20;1.10;;;;;;;12.58;86.37;95861.38;5095927;28;20085;-61
2021/10/12 05:43:38;;;;;;;1.40;1.30;;;;;;;12.41;85.57;95861.50;5095988;28;20024;-62
2021/10/12 05:46:04;;;;;;;1.30;1.20;;;;;;;12.21;85.87;95859.06;5095980;28;20024;-61
2021/10/12 05:48:30;;;;;;;1.40;1.30;;;;;;;12.26;86.30;95856.19;5095884;28;20059;-62
2021/10/12 05:50:56;;;;;;;1.42;1.33;;;;;;;12.15;86.42;95858.53;5095737;28;20056;-61
2021/10/12 05:54:07;;;;;;;1.58;1.48;;;;;;;12.13;86.87;95869.09;5095681;28;20065;-62
2021/10/12 05:56:11;;;;;;;1.95;1.75;;;;;;;12.12;86.98;95870.91;5081312;28;20099;-61
2021/10/12 05:58:44;;;;;;;1.65;1.55;;;;;;;12.10;86.69;95878.00;5095698;28;20020;-61
2021/10/12 06:01:11;;;;;;;3.92;1.90;;;;;;;12.07;87.44;95872.91;5095706;28;20074;-63
2021/10/12 06:03:37;;;;;;;2.30;2.10;;;;;;;12.08;87.31;95869.38;5095330;28;20047;-63
2021/10/12 06:06:03;;;;;;;2.35;1.63;;;;;;;12.04;87.16;95869.59;5095520;28;20095;-62
2021/10/12 06:08:33;;;;;;;1.80;1.70;;;;;;;12.01;87.29;95868.81;5095502;28;20028;-61
2021/10/12 06:11:03;;;;;;;1.98;1.88;;;;;;;12.03;87.46;95862.66;5095469;28;20085;-63
2021/10/12 06:13:30;;;;;;;2.53;1.65;;;;;;;11.97;86.78;95866.44;5095369;28;20104;-62
2021/10/12 06:15:55;;;;;;;1.60;1.42;;;;;;;11.98;86.45;95869.00;5094364;28;20055;-63
2021/10/12 06:18:21;;;;;;;1.88;1.67;;;;;;;11.87;86.90;95863.50;5095160;28;20060;-62
2021/10/12 06:20:48;;;;;;;1.90;1.33;;;;;;;11.88;87.23;95863.41;5095351;28;20028;-61
2021/10/12 06:23:15;;;;;;;5.28;1.80;;;;;;;11.93;87.24;95867.56;5095163;28;20066;-62
2021/10/12 06:25:41;;;;;;;1.60;1.50;;;;;;;12.03;87.40;95867.88;5095152;28;20020;-62
2021/10/12 06:28:08;;;;;;;2.70;1.58;;;;;;;12.03;86.83;95865.28;5095075;28;20023;-63
2021/10/12 06:30:34;;;;;;;1.88;1.48;;;;;;;12.02;86.56;95864.44;5094925;28;20047;-62
2021/10/12 06:33:00;;;;;;;1.35;1.25;;;;;;;12.08;86.76;95860.66;5095107;28;20458;-61
2021/10/12 06:35:30;;;;;;;1.77;1.45;;;;;;;12.10;86.56;95858.81;5094910;28;20024;-64
2021/10/12 06:37:59;;;;;;;1.98;1.73;;;;;;;12.18;86.53;95859.22;5094848;28;20031;-61
2021/10/12 06:40:26;;;;;;;2.38;2.17;;;;;;;12.23;86.40;95869.47;5094858;28;20454;-62
2021/10/12 06:42:52;;;;;;;4.03;2.45;;;;;;;12.24;86.49;95868.53;5094898;28;20020;-63
2021/10/12 06:45:19;;;;;;;3.22;2.78;;;;;;;12.28;86.26;95863.97;5094902;28;20019;-63
2021/10/12 06:47:46;;;;;;;3.20;2.90;;;;;;;12.34;86.84;95863.63;5094862;28;20034;-62
2021/10/12 06:50:12;;;;;;;2.13;2.03;;;;;;;12.29;85.83;95865.66;5094767;28;20032;-62
2021/10/12 06:52:37;;;;;;;3.28;1.80;;;;;;;12.28;85.09;95864.78;5094523;28;20533;-61
2021/10/12 06:55:04;;;;;;;1.45;1.17;;;;;;;12.23;84.05;95872.94;5094394;28;20032;-62
2021/10/12 06:57:30;;;;;;;1.48;1.30;;;;;;;12.21;83.81;95871.31;5094566;28;20046;-61
2021/10/12 06:59:56;;;;;;;1.50;1.40;;;;;;;12.22;84.25;95876.47;5094583;28;20024;-63
2021/10/12 07:02:21;;;;;;;2.33;1.20;;;;;;;12.19;84.47;95878.44;5094212;28;20052;-62
2021/10/12 07:04:47;;;;;;;1.30;1.20;;;;;;;12.09;82.55;95870.22;5094382;28;20028;-63
2021/10/12 07:07:12;;;;;;;1.63;1.25;;;;;;;12.11;82.41;95863.97;5094509;28;20469;-63
2021/10/12 07:09:38;;;;;;;3.30;1.20;;;;;;;12.06;83.22;95867.72;5094494;28;20032;-61
2021/10/12 07:12:04;;;;;;;1.90;1.20;;;;;;;12.03;83.68;95866.13;5094292;28;20050;-62
2021/10/12 07:14:29;;;;;;;3.70;1.17;;;;;;;12.09;83.44;95862.34;5094119;28;20020;-61
2021/10/12 07:16:55;;;;;;;1.30;1.20;;;;;;;12.17;82.79;95865.41;5094157;28;20024;-63
2021/10/12 07:19:21;;;;;;;1.67;1.30;;;;;;;12.12;82.81;95856.94;5094087;28;20032;-61
2021/10/12 07:21:47;;;;;;;1.00;1.00;;;;;;;12.07;82.12;95851.94;5094131;28;20478;-61
2021/10/12 07:24:12;;;;;;;1.35;1.10;;;;;;;12.11;82.58;95853.50;5094145;28;20038;-62
2021/10/12 07:26:39;;;;;;;1.05;1.02;;;;;;;12.16;81.81;95849.75;5093891;28;20623;-63
2021/10/12 07:29:05;;;;;;;0.80;0.80;;;;;;;12.16;80.95;95847.97;5093940;28;20485;-62
2021/10/12 07:31:31;;;;;;;2.95;1.02;;;;;;;12.02;81.67;95851.34;5093885;28;20385;-62
2021/10/12 07:33:57;;;;;;;1.40;1.15;;;;;;;12.06;82.75;95854.63;5093945;28;20028;-62
2021/10/12 07:36:23;;;;;;;0.88;0.88;;;;;;;12.07;82.75;95849.31;5093835;28;20027;-61
2021/10/12 07:38:49;;;;;;;1.58;0.93;;;;;;;12.06;81.53;95849.38;5093757;28;20020;-61
2021/10/12 07:41:15;;;;;;;1.70;1.05;;;;;;;12.08;81.48;95856.28;5093889;28;20165;-61
2021/10/12 07:43:41;;;;;;;1.90;1.10;;;;;;;12.33;81.44;95856.69;5093737;28;20459;-61
2021/10/12 07:46:06;;;;;;;0.70;0.70;;;;;;;12.35;80.03;95863.53;5093622;28;20024;-62
2021/10/12 07:48:33;;;;;;;0.95;0.82;;;;;;;12.31;79.84;95869.03;5093687;28;20074;-63
2021/10/12 07:50:59;;;;;;;0.80;0.80;;;;;;;12.22;79.73;95865.16;5093469;28;20028;-62
2021/10/12 07:53:24;;;;;;;3.40;1.10;;;;;;;12.23;81.40;95866.84;5093221;28;20492;-61
2021/10/12 07:58:16;;;;;;;1.13;1.10;;;;;;;12.08;80.14;95885.13;5093457;28;20024;-61
2021/10/12 08:00:43;;;;;;;1.27;1.17;;;;;;;11.94;80.56;95884.97;5093445;28;20561;-62
2021/10/12 08:03:10;;;;;;;1.10;1.00;;;;;;;12.03;81.75;95883.63;5093181;28;20036;-62
2021/10/12 08:05:37;;;;;;;1.58;1.00;;;;;;;11.91;79.64;95882.50;5093423;28;20075;-62
2021/10/12 08:08:04;;;;;;;2.15;1.20;;;;;;;11.90;80.35;95892.16;5093449;28;20028;-62
2021/10/12 08:10:34;;;;;;;1.30;1.20;;;;;;;11.90;81.40;95894.78;5093265;28;20103;-62
2021/10/12 08:13:05;;;;;;;3.45;1.30;;;;;;;11.86;79.81;95888.03;5093315;28;20107;-63
2021/10/12 08:15:31;;;;;;;1.15;1.00;;;;;;;11.77;80.76;95891.13;5093201;28;20537;-62
2021/10/12 08:17:58;;;;;;;2.65;2.42;;;;;;;11.69;80.92;95887.13;5093357;28;20036;-61
2021/10/12 08:20:24;;;;;;;2.25;1.50;;;;;;;11.66;81.64;95882.06;5093412;28;20020;-62
2021/10/12 08:22:49;;;;;;;1.02;1.02;;;;;;;11.74;80.89;95882.50;5093346;28;20374;-62
2021/10/12 08:25:15;;;;;;;1.30;1.08;;;;;;;11.70;80.95;95888.81;5093128;28;20028;-62
2021/10/12 08:27:41;;;;;;;1.15;1.02;;;;;;;11.66;79.17;95886.44;5093061;28;20489;-62
2021/10/12 08:30:09;;;;;;;1.10;1.00;;;;;;;11.58;80.77;95894.69;5093175;28;20428;-62
2021/10/12 08:32:35;;;;;;;1.00;0.90;;;;;;;11.55;79.52;95892.25;5093182;28;20036;-62
2021/10/12 08:35:01;;;;;;;1.00;1.00;;;;;;;11.50;79.80;95885.47;5093050;28;20035;-61
2021/10/12 08:37:26;;;;;;;0.88;0.88;;;;;;;11.51;79.78;95883.72;5093093;28;20069;-62
2021/10/12 08:39:52;;;;;;;1.85;1.65;;;;;;;11.42;78.77;95889.41;5096116;28;20024;-61
2021/10/12 08:42:25;;;;;;;1.13;1.08;;;;;;;11.42;79.83;95889.41;5097149;28;20130;-62
2021/10/12 08:44:55;;;;;;;2.60;1.02;;;;;;;11.41;80.09;95891.19;5097222;28;20078;-62
2021/10/12 08:47:22;;;;;;;1.15;0.80;;;;;;;11.35;79.35;95886.28;5097145;28;20027;-62
2021/10/12 08:49:48;;;;;;;6.13;1.20;;;;;;;11.25;80.15;95888.50;5096992;28;20106;-61
2021/10/12 08:52:14;;;;;;;1.45;1.17;;;;;;;11.29;81.31;95873.50;5096957;28;20108;-61
2021/10/12 08:54:39;;;;;;;1.30;1.20;;;;;;;11.36;80.58;95880.13;5096857;28;20351;-62
2021/10/12 08:57:05;;;;;;;0.95;0.93;;;;;;;11.40;80.16;95872.94;5096947;28;20545;-62
2021/10/12 08:59:30;;;;;;;1.33;1.00;;;;;;;11.46;79.02;95867.38;5096759;28;20377;-62
2021/10/12 09:02:01;;;;;;;1.42;1.10;;;;;;;11.45;79.12;95877.03;5096756;28;20020;-62
2021/10/12 09:04:41;;;;;;;1.25;1.10;;;;;;;11.51;79.55;95868.00;5096866;28;20032;-61
2021/10/12 09:07:17;;;;;;;1.00;1.00;;;;;;;11.52;78.50;95856.59;5096748;28;20567;-61
2021/10/12 09:09:44;;;;;;;1.20;1.00;;;;;;;11.47;78.35;95864.69;5096750;28;20028;-61
2021/10/12 09:12:11;;;;;;;10.07;1.05;;;;;;;11.45;77.77;95856.06;5096520;28;20591;-62
2021/10/12 09:14:57;;;;;;;1.35;1.05;;;;;;;11.36;78.43;95851.31;5096473;28;20047;-61
2021/10/12 09:17:35;;;;;;;0.77;0.77;;;;;;;11.32;78.24;95848.00;5096552;28;20035;-62
2021/10/12 09:20:21;;;;;;;1.20;1.10;;;;;;;11.33;79.23;95839.25;5096382;28;20024;-61
2021/10/12 09:23:13;;;;;;;1.23;0.88;;;;;;;11.37;78.45;95829.44;5096137;28;20059;-62
2021/10/12 09:25:45;;;;;;;1.40;1.10;;;;;;;11.40;78.46;95815.31;5096470;28;20496;-62
2021/10/12 09:28:25;;;;;;;0.90;0.90;;;;;;;11.54;78.90;95823.31;5096322;28;20016;-62
2021/10/12 09:30:55;;;;;;;4.55;1.20;;;;;;;11.61;77.87;95815.97;5096332;28;20522;-62
2021/10/12 09:33:21;;;;;;;1.17;1.08;;;;;;;11.60;78.06;95809.91;5077980;28;20366;-62
2021/10/12 09:35:47;;;;;;;1.00;0.90;;;;;;;11.80;77.15;95814.97;5096003;28;20038;-60
2021/10/12 09:38:14;;;;;;;0.77;0.77;;;;;;;11.87;76.88;95816.31;5096130;28;20038;-62
2021/10/12 09:40:42;;;;;;;1.48;1.00;;;;;;;11.90;75.63;95805.69;5096019;28;20028;-62
2021/10/12 09:43:09;;;;;;;3.63;0.90;;;;;;;11.97;76.58;95795.69;5096063;28;20028;-63
2021/10/12 09:45:37;;;;;;;2.75;1.45;;;;;;;12.00;76.75;95798.16;5096061;28;20028;-62
2021/10/12 09:48:26;;;;;;;0.80;0.80;;;;;;;11.94;76.00;95790.63;5095855;28;20024;-63
2021/10/12 09:51:14;;;;;;;2.25;1.00;;;;;;;12.05;75.37;95796.13;5094660;28;20036;-61
2021/10/12 09:53:45;;;;;;;1.20;1.10;;;;;;;12.04;75.62;95786.56;5095669;28;20382;-61
2021/10/12 09:56:12;;;;;;;3.03;1.15;;;;;;;12.07;74.04;95772.47;5095860;28;20393;-61
2021/10/12 09:58:38;;;;;;;1.10;1.05;;;;;;;12.13;75.85;95766.88;5095750;28;20040;-61
2021/10/12 10:01:06;;;;;;;0.85;0.80;;;;;;;12.32;75.71;95771.06;5095568;28;20048;-62
2021/10/12 10:03:33;;;;;;;1.60;1.30;;;;;;;12.46;74.60;95778.16;5095407;28;20134;-61
2021/10/12 10:06:09;;;;;;;2.72;1.23;;;;;;;12.61;74.54;95779.03;5095564;28;20378;-63
2021/10/12 10:08:43;;;;;;;0.73;0.73;;;;;;;12.64;72.61;95763.97;5095640;28;20111;-63
2021/10/12 10:11:09;;;;;;;0.77;0.70;;;;;;;12.74;73.28;95766.88;5095557;28;20046;-61
2021/10/12 10:13:37;;;;;;;1.00;1.00;;;;;;;12.72;71.08;95771.38;5095332;28;20066;-62
2021/10/12 10:16:07;;;;;;;2.67;1.95;;;;;;;12.66;71.40;95770.88;5095405;28;20093;-62
2021/10/12 10:18:34;;;;;;;1.00;0.90;;;;;;;12.70;72.83;95760.13;5095563;28;20031;-62
2021/10/12 10:21:01;;;;;;;4.50;0.93;;;;;;;12.63;71.92;95769.28;5095269;28;20032;-62
2021/10/12 10:26:40;;;;;;;0.80;0.80;;;;;;;12.40;73.54;95779.34;5095210;28;20093;-62
2021/10/12 10:29:36;;;;;;;2.75;0.85;;;;;;;12.32;73.65;95765.84;5095079;28;20523;-62
2021/10/12 10:32:12;;;;;;;1.00;1.00;;;;;;;12.33;72.88;95759.66;5095291;28;20024;-61
2021/10/12 10:34:45;;;;;;;0.80;0.80;;;;;;;12.26;73.29;95767.03;5094955;28;20028;-62
2021/10/12 10:37:17;;;;;;;0.80;0.80;;;;;;;12.23;73.96;95760.19;5095077;28;20047;-62
2021/10/12 10:39:48;;;;;;;0.98;0.75;;;;;;;12.26;73.65;95756.56;5094906;28;20384;-61
2021/10/12 10:42:26;;;;;;;0.75;0.75;;;;;;;12.26;73.88;95761.78;5095231;28;20021;-62
2021/10/12 10:45:01;;;;;;;0.55;0.55;;;;;;;12.28;74.01;95754.66;5094803;28;20082;-62
2021/10/12 10:47:44;;;;;;;1.50;0.90;;;;;;;12.29;73.92;95747.66;5094893;28;20028;-62
2021/10/12 10:50:29;;;;;;;0.68;0.68;;;;;;;12.27;72.04;95742.50;5094650;28;20020;-62
2021/10/12 10:53:00;;;;;;;0.75;0.60;;;;;;;12.24;73.25;95738.28;5094823;28;20016;-61
2021/10/12 10:55:40;;;;;;;1.23;0.60;;;;;;;12.24;73.02;95737.41;5094547;28;20409;-61
2021/10/12 10:58:08;;;;;;;0.82;0.80;;;;;;;12.11;72.55;95730.28;5094612;28;20024;-61
2021/10/12 11:00:50;;;;;;;2.28;2.08;;;;;;;12.17;73.57;95731.72;5094716;28;20097;-61
2021/10/12 11:03:34;;;;;;;0.57;0.57;;;;;;;12.19;71.99;95721.13;5093870;28;20062;-62
2021/10/12 11:06:14;;;;;;;1.40;0.77;;;;;;;12.12;72.26;95715.38;5094416;28;20097;-62
2021/10/12 11:08:54;;;;;;;0.60;0.60;;;;;;;12.16;72.28;95708.19;5094497;28;20589;-62
2021/10/12 11:11:19;;;;;;;3.75;0.60;;;;;;;12.15;71.42;95699.47;5094450;28;20039;-62
2021/10/12 11:13:45;;;;;;;2.65;0.63;;;;;;;12.14;72.59;95695.19;5094162;28;20032;-62
2021/10/12 11:16:15;;;;;;;0.70;0.70;;;;;;;12.19;73.58;95687.88;5094167;28;20024;-61
2021/10/12 11:18:44;;;;;;;0.50;0.50;;;;;;;12.29;72.81;95687.34;5094174;28;20020;-62
2021/10/12 11:21:17;;;;;;;0.90;0.80;;;;;;;12.40;72.40;95686.72;5094142;28;20532;-62
2021/10/12 11:23:49;;;;;;;0.70;0.70;;;;;;;12.49;72.23;95679.13;5094232;28;20105;-61
2021/10/12 11:26:17;;;;;;;0.55;0.55;;;;;;;12.68;71.88;95674.56;5093936;28;20470;-61
2021/10/12 11:28:47;;;;;;;0.73;0.73;;;;;;;12.73;72.08;95668.09;5094018;28;20048;-62
2021/10/12 11:31:16;;;;;;;1.00;0.70;;;;;;;12.75;71.62;95668.00;5076245;28;20036;-62
2021/10/12 11:33:45;;;;;;;0.95;0.88;;;;;;;12.84;71.34;95663.97;5094043;28;20032;-61
2021/10/12 11:36:15;;;;;;;3.15;0.90;;;;;;;12.94;72.33;95667.72;5094023;28;20039;-62
2021/10/12 11:38:54;;;;;;;1.13;1.02;;;;;;;13.02;71.17;95669.88;5093912;28;20124;-62